createdAt,value
2022-08-16T00:00:27.274Z,58.66
2022-08-16T00:02:54.781Z,58.81
2022-08-16T00:05:23.180Z,58.69
2022-08-16T00:07:56.472Z,58.61
2022-08-16T00:10:26.694Z,58.71
2022-08-16T00:12:55.555Z,59.12
2022-08-16T00:15:51.353Z,58.96
2022-08-16T00:18:18.638Z,58.94
2022-08-16T00:20:48.573Z,59.10
2022-08-16T00:23:17.366Z,59.33
2022-08-16T00:26:33.701Z,59.28
2022-08-16T00:28:37.567Z,59.39
2022-08-16T00:31:04.154Z,59.60
2022-08-16T00:33:31.050Z,59.35
2022-08-16T00:35:57.738Z,59.83
2022-08-16T00:38:40.282Z,59.54
2022-08-16T00:41:08.492Z,59.86
2022-08-16T00:43:43.407Z,59.60
2022-08-16T00:46:33.724Z,59.63
2022-08-16T00:49:02.554Z,59.82
2022-08-16T00:51:29.429Z,59.85
2022-08-16T00:53:56.685Z,59.67
2022-08-16T00:56:57.194Z,59.74
2022-08-16T00:59:16.193Z,59.83
2022-08-16T01:01:44.642Z,59.60
2022-08-16T01:04:30.192Z,59.66
2022-08-16T01:07:02.109Z,59.82
2022-08-16T01:09:33.518Z,59.94
2022-08-16T01:12:08.464Z,60.02
2022-08-16T01:14:43.578Z,59.92
2022-08-16T01:17:13.826Z,60.02
2022-08-16T01:19:45.602Z,60.26
2022-08-16T01:22:47.645Z,60.04
2022-08-16T01:25:34.186Z,60.02
2022-08-16T01:28:03.968Z,60.16
2022-08-16T01:30:39.895Z,59.86
2022-08-16T01:33:17.201Z,59.99
2022-08-16T01:35:57.199Z,60.02
2022-08-16T01:38:34.675Z,59.77
2022-08-16T01:41:11.083Z,59.99
2022-08-16T01:43:42.805Z,60.18
2022-08-16T01:46:40.242Z,59.65
2022-08-16T01:49:21.575Z,60.24
2022-08-16T01:51:59.420Z,60.22
2022-08-16T01:54:37.495Z,60.22
2022-08-16T01:57:05.718Z,60.47
2022-08-16T01:59:33.913Z,60.25
2022-08-16T02:02:01.292Z,60.26
2022-08-16T02:04:48.410Z,60.22
2022-08-16T02:07:23.782Z,60.02
2022-08-16T02:09:58.577Z,60.58
2022-08-16T02:12:43.557Z,60.38
2022-08-16T02:15:24.787Z,60.41
2022-08-16T02:17:55.945Z,60.24
2022-08-16T02:20:26.309Z,60.43
2022-08-16T02:22:55.874Z,60.41
2022-08-16T02:25:22.682Z,60.50
2022-08-16T02:27:51.095Z,60.32
2022-08-16T02:30:36.047Z,60.17
2022-08-16T02:33:05.572Z,60.56
2022-08-16T02:35:34.279Z,60.37
2022-08-16T02:38:17.033Z,60.33
2022-08-16T02:40:45.625Z,60.70
2022-08-16T02:43:13.579Z,60.62
2022-08-16T02:45:41.874Z,60.58
2022-08-16T02:48:30.014Z,60.56
2022-08-16T02:51:10.228Z,60.55
2022-08-16T02:53:45.970Z,60.30
2022-08-16T02:56:18.299Z,60.67
2022-08-16T02:58:47.155Z,60.56
2022-08-16T03:01:24.924Z,60.55
2022-08-16T03:04:39.828Z,60.56
2022-08-16T03:06:56.870Z,60.54
2022-08-16T03:09:44.197Z,60.64
2022-08-16T03:12:16.549Z,60.68
2022-08-16T03:14:46.622Z,60.58
2022-08-16T03:17:14.445Z,60.66
2022-08-16T03:19:48.120Z,60.64
2022-08-16T03:22:28.287Z,60.77
2022-08-16T03:25:02.332Z,60.74
2022-08-16T03:27:33.393Z,60.76
2022-08-16T03:30:16.044Z,60.78
2022-08-16T03:32:47.337Z,60.77
2022-08-16T03:35:14.916Z,60.62
2022-08-16T03:38:01.583Z,60.80
2022-08-16T03:40:35.287Z,60.87
2022-08-16T03:43:19.620Z,60.59
2022-08-16T03:45:53.428Z,60.77
2022-08-16T03:48:36.283Z,60.78
2022-08-16T03:51:12.250Z,60.82
2022-08-16T03:53:45.925Z,61.03
2022-08-16T03:56:30.362Z,60.97
2022-08-16T03:58:58.181Z,61.03
2022-08-16T04:01:29.906Z,60.79
2022-08-16T04:03:57.351Z,60.94
2022-08-16T04:06:24.034Z,60.96
2022-08-16T04:08:51.326Z,61.24
2022-08-16T04:11:18.518Z,61.12
2022-08-16T04:14:00.922Z,61.13
2022-08-16T04:16:37.833Z,61.24
2022-08-16T04:19:25.930Z,61.16
2022-08-16T04:22:00.711Z,61.30
2022-08-16T04:24:54.093Z,60.86
2022-08-16T04:27:31.496Z,61.21
2022-08-16T04:30:02.751Z,61.01
2022-08-16T04:32:33.357Z,61.03
2022-08-16T04:35:08.480Z,60.98
2022-08-16T04:37:42.233Z,61.29
2022-08-16T04:40:29.407Z,61.32
2022-08-16T04:42:59.596Z,61.36
2022-08-16T04:45:36.026Z,61.22
2022-08-16T04:48:07.099Z,61.20
2022-08-16T04:50:43.648Z,61.54
2022-08-16T04:53:16.986Z,61.20
2022-08-16T04:55:53.141Z,61.42
2022-08-16T04:58:44.434Z,61.20
2022-08-16T05:01:08.656Z,61.22
2022-08-16T05:03:41.610Z,61.37
2022-08-16T05:06:22.657Z,61.25
2022-08-16T05:09:09.518Z,61.05
2022-08-16T05:11:36.578Z,61.10
2022-08-16T05:14:07.060Z,61.05
2022-08-16T05:16:35.652Z,60.89
2022-08-16T05:19:13.205Z,60.94
2022-08-16T05:21:54.241Z,61.27
2022-08-16T05:24:24.628Z,61.10
2022-08-16T05:26:52.103Z,61.14
2022-08-16T05:29:20.550Z,61.21
2022-08-16T05:32:32.351Z,61.22
2022-08-16T05:34:53.591Z,61.15
2022-08-16T05:37:24.411Z,61.45
2022-08-16T05:39:51.922Z,61.41
2022-08-16T05:42:22.136Z,61.49
2022-08-16T05:45:06.933Z,61.31
2022-08-16T05:47:34.853Z,61.54
2022-08-16T05:50:10.594Z,61.37
2022-08-16T05:52:46.377Z,61.35
2022-08-16T05:55:13.587Z,61.48
2022-08-16T05:57:40.127Z,61.25
2022-08-16T06:00:12.033Z,61.07
2022-08-16T06:02:45.055Z,61.03
2022-08-16T06:05:41.539Z,61.00
2022-08-16T06:08:08.909Z,60.73
2022-08-16T06:11:02.564Z,61.01
2022-08-16T06:13:37.754Z,60.79
2022-08-16T06:16:09.557Z,60.59
2022-08-16T06:18:45.539Z,60.66
2022-08-16T06:21:13.725Z,60.86
2022-08-16T06:23:51.082Z,60.77
2022-08-16T06:26:21.347Z,60.52
2022-08-16T06:28:48.095Z,60.57
2022-08-16T06:31:24.822Z,60.84
2022-08-16T06:33:54.200Z,60.83
2022-08-16T06:36:23.985Z,60.95
2022-08-16T06:39:12.208Z,60.57
2022-08-16T06:41:51.372Z,60.85
2022-08-16T06:44:32.051Z,60.45
2022-08-16T06:47:02.831Z,60.41
2022-08-16T06:49:30.001Z,60.56
2022-08-16T06:52:03.089Z,60.63
2022-08-16T06:54:34.273Z,60.67
2022-08-16T06:57:01.541Z,60.76
2022-08-16T06:59:28.198Z,61.01
2022-08-16T07:01:59.556Z,61.27
2022-08-16T07:04:33.317Z,60.91
2022-08-16T07:07:14.359Z,60.82
2022-08-16T07:09:41.817Z,61.15
2022-08-16T07:12:09.357Z,60.77
2022-08-16T07:14:41.089Z,61.03
2022-08-16T07:17:12.598Z,61.27
2022-08-16T07:20:29.358Z,60.67
2022-08-16T07:22:42.452Z,60.67
2022-08-16T07:25:23.123Z,60.96
2022-08-16T07:27:51.002Z,60.91
2022-08-16T07:30:38.440Z,60.80
2022-08-16T07:33:09.288Z,61.15
2022-08-16T07:35:44.434Z,61.00
2022-08-16T07:38:19.908Z,61.29
2022-08-16T07:40:59.443Z,61.57
2022-08-16T07:43:29.000Z,61.35
2022-08-16T07:46:01.600Z,61.80
2022-08-16T07:48:31.298Z,61.33
2022-08-16T07:51:00.321Z,61.29
2022-08-16T07:53:31.742Z,61.07
2022-08-16T07:56:02.196Z,61.25
2022-08-16T07:58:36.468Z,60.83
2022-08-16T08:01:12.601Z,60.85
2022-08-16T08:03:49.030Z,60.96
2022-08-16T08:06:20.069Z,60.57
2022-08-16T08:08:51.479Z,60.72
2022-08-16T08:11:21.911Z,60.87
2022-08-16T08:13:53.608Z,61.16
2022-08-16T08:16:21.976Z,60.67
2022-08-16T08:19:01.164Z,60.88
2022-08-16T08:22:00.848Z,60.63
2022-08-16T08:24:15.852Z,60.46
2022-08-16T08:26:44.499Z,60.64
2022-08-16T08:29:23.179Z,60.75
2022-08-16T08:31:52.460Z,60.81
2022-08-16T08:34:21.258Z,60.59
2022-08-16T08:36:50.062Z,60.54
2022-08-16T08:39:31.401Z,60.69
2022-08-16T08:42:00.269Z,60.36
2022-08-16T08:44:31.894Z,60.09
2022-08-16T08:47:09.230Z,60.27
2022-08-16T08:49:50.484Z,60.36
2022-08-16T08:52:33.798Z,60.14
2022-08-16T08:55:10.755Z,60.01
2022-08-16T08:57:41.017Z,60.20
2022-08-16T09:00:21.484Z,60.25
2022-08-16T09:02:56.782Z,60.25
2022-08-16T09:05:26.174Z,59.63
2022-08-16T09:08:05.882Z,59.82
2022-08-16T09:10:58.870Z,59.82
2022-08-16T09:13:33.101Z,60.02
2022-08-16T09:16:00.296Z,60.10
2022-08-16T09:18:35.263Z,59.84
2022-08-16T09:21:07.041Z,59.71
2022-08-16T09:23:37.467Z,59.69
2022-08-16T09:26:44.574Z,59.94
2022-08-16T09:29:14.670Z,59.60
2022-08-16T09:31:42.093Z,59.36
2022-08-16T09:34:09.336Z,59.11
2022-08-16T09:36:37.383Z,58.82
2022-08-16T09:39:16.347Z,58.92
2022-08-16T09:41:53.191Z,58.66
2022-08-16T09:45:10.780Z,58.46
2022-08-16T09:47:10.380Z,58.21
2022-08-16T09:49:37.566Z,58.35
2022-08-16T09:52:09.464Z,58.28
2022-08-16T09:54:37.811Z,58.51
2022-08-16T09:57:04.929Z,58.27
2022-08-16T09:59:38.409Z,58.28
2022-08-16T10:02:26.176Z,58.80
2022-08-16T10:04:53.008Z,58.60
2022-08-16T10:07:21.908Z,58.71
2022-08-16T10:09:55.324Z,58.75
2022-08-16T10:12:55.936Z,58.41
2022-08-16T10:15:24.603Z,58.23
2022-08-16T10:18:01.498Z,58.31
2022-08-16T10:20:32.487Z,57.85
2022-08-16T10:23:06.841Z,57.99
2022-08-16T10:27:22.007Z,57.69
2022-08-16T10:28:32.318Z,57.39
2022-08-16T10:31:07.187Z,56.98
2022-08-16T10:33:35.320Z,56.96
2022-08-16T10:36:12.343Z,56.79
2022-08-16T10:38:58.847Z,56.63
2022-08-16T10:41:25.313Z,56.28
2022-08-16T10:43:52.096Z,55.98
2022-08-16T10:46:33.736Z,56.57
2022-08-16T10:49:05.934Z,56.44
2022-08-16T10:51:34.433Z,55.89
2022-08-16T10:54:58.448Z,55.55
2022-08-16T10:57:28.050Z,55.63
2022-08-16T10:59:59.894Z,55.32
2022-08-16T11:02:59.982Z,55.75
2022-08-16T11:05:16.744Z,55.38
2022-08-16T11:07:51.931Z,55.06
2022-08-16T11:19:06.001Z,54.76
2022-08-16T11:22:11.139Z,54.48
2022-08-16T11:24:41.350Z,54.30
2022-08-16T11:27:20.431Z,54.50
2022-08-16T11:29:49.630Z,54.80
2022-08-16T11:32:20.119Z,54.57
2022-08-16T11:35:09.779Z,54.30
2022-08-16T11:38:23.626Z,54.53
2022-08-16T11:40:32.295Z,54.31
2022-08-16T11:42:59.982Z,53.95
2022-08-16T11:45:26.819Z,54.33
2022-08-16T11:47:54.536Z,53.78
2022-08-16T11:50:21.760Z,53.55
2022-08-16T11:52:48.213Z,53.68
2022-08-16T11:55:14.745Z,54.14
2022-08-16T11:57:41.382Z,53.72
2022-08-16T12:00:49.996Z,54.00
2022-08-16T12:03:00.738Z,53.43
2022-08-16T12:05:28.097Z,53.20
2022-08-16T12:07:55.517Z,53.34
2022-08-16T12:10:24.254Z,53.12
2022-08-16T12:12:54.606Z,52.97
2022-08-16T12:15:27.376Z,53.35
2022-08-16T12:17:57.667Z,53.17
2022-08-16T12:20:32.079Z,52.71
2022-08-16T12:22:59.231Z,53.17
2022-08-16T12:25:29.211Z,51.81
2022-08-16T12:27:57.164Z,52.45
2022-08-16T12:30:32.183Z,52.59
2022-08-16T12:33:03.177Z,51.94
2022-08-16T12:35:32.526Z,52.06
2022-08-16T12:38:01.194Z,51.97
2022-08-16T12:40:50.920Z,51.92
2022-08-16T12:43:23.489Z,52.02
2022-08-16T12:45:53.571Z,51.68
2022-08-16T12:48:43.281Z,51.58
2022-08-16T12:51:19.900Z,51.28
2022-08-16T12:53:51.726Z,51.52
2022-08-16T12:56:20.153Z,51.26
2022-08-16T12:58:51.969Z,51.47
2022-08-16T13:01:22.678Z,51.25
2022-08-16T13:03:59.153Z,51.42
2022-08-16T13:06:37.131Z,51.83
2022-08-16T13:09:20.225Z,50.83
2022-08-16T13:12:19.612Z,50.58
2022-08-16T13:14:47.814Z,51.12
2022-08-16T13:17:26.329Z,51.13
2022-08-16T13:20:07.178Z,51.61
2022-08-16T13:22:42.153Z,51.35
2022-08-16T13:25:10.569Z,51.65
2022-08-16T13:28:15.097Z,51.76
2022-08-16T13:30:37.862Z,52.12
2022-08-16T13:33:29.566Z,52.27
2022-08-16T13:36:00.172Z,52.70
2022-08-16T13:38:36.399Z,53.57
2022-08-16T13:41:08.333Z,53.53
2022-08-16T13:43:37.754Z,53.84
2022-08-16T13:46:04.986Z,54.00
2022-08-16T13:48:43.033Z,53.98
2022-08-16T13:51:16.835Z,53.55
2022-08-16T13:53:49.658Z,53.87
2022-08-16T13:56:34.246Z,53.68
2022-08-16T13:59:06.181Z,54.05
2022-08-16T14:01:44.013Z,53.85
2022-08-16T14:04:12.281Z,53.88
2022-08-16T14:06:52.761Z,53.87
2022-08-16T14:09:20.206Z,53.86
2022-08-16T14:11:46.709Z,53.81
2022-08-16T14:14:16.486Z,53.70
2022-08-16T14:16:44.669Z,53.91
2022-08-16T14:19:13.782Z,53.58
2022-08-16T14:21:55.896Z,53.65
2022-08-16T14:24:30.041Z,53.54
2022-08-16T14:26:57.703Z,53.50
2022-08-16T14:29:24.287Z,53.42
2022-08-16T14:31:58.877Z,53.22
2022-08-16T14:34:25.766Z,53.32
2022-08-16T14:36:55.604Z,53.09
2022-08-16T14:39:22.462Z,53.17
2022-08-16T14:41:49.289Z,53.14
2022-08-16T14:44:19.781Z,53.09
2022-08-16T14:46:46.706Z,53.35
2022-08-16T14:49:14.334Z,53.33
2022-08-16T14:51:40.875Z,53.00
2022-08-16T14:54:11.356Z,52.96
2022-08-16T14:56:42.446Z,52.75
2022-08-16T14:59:10.850Z,52.98
2022-08-16T15:01:58.920Z,52.83
2022-08-16T15:04:32.601Z,52.60
2022-08-16T15:07:11.063Z,52.59
2022-08-16T15:09:44.598Z,52.61
2022-08-16T15:12:31.311Z,52.63
2022-08-16T15:15:12.080Z,52.74
2022-08-16T15:17:41.425Z,52.79
2022-08-16T15:20:09.166Z,52.99
2022-08-16T15:22:45.875Z,52.88
2022-08-16T15:25:22.541Z,53.04
2022-08-16T15:27:58.741Z,52.77
2022-08-16T15:30:57.608Z,52.99
2022-08-16T15:33:19.616Z,52.83
2022-08-16T15:35:49.910Z,52.95
2022-08-16T15:38:57.585Z,52.73
2022-08-16T15:41:04.713Z,52.78
2022-08-16T15:43:39.181Z,53.25
2022-08-16T15:46:35.719Z,53.25
2022-08-16T15:49:09.585Z,53.73
2022-08-16T15:51:36.975Z,54.12
2022-08-16T15:54:21.087Z,54.47
2022-08-16T15:56:54.996Z,54.63
2022-08-16T15:59:23.637Z,54.42
2022-08-16T16:01:51.436Z,53.63
2022-08-16T16:04:22.820Z,53.34
2022-08-16T16:06:54.857Z,53.04
2022-08-16T16:09:36.996Z,53.16
2022-08-16T16:12:16.226Z,53.04
2022-08-16T16:14:52.102Z,52.91
2022-08-16T16:17:18.721Z,53.31
2022-08-16T16:19:45.340Z,53.42
2022-08-16T16:22:17.375Z,53.06
2022-08-16T16:24:47.050Z,53.34
2022-08-16T16:27:14.081Z,53.26
2022-08-16T16:29:42.673Z,53.51
2022-08-16T16:32:13.369Z,53.68
2022-08-16T16:34:43.172Z,53.13
2022-08-16T16:37:10.369Z,53.64
2022-08-16T16:39:37.695Z,52.98
2022-08-16T16:42:05.138Z,53.32
2022-08-16T16:44:36.251Z,53.43
2022-08-16T16:47:03.822Z,53.54
2022-08-16T16:49:32.862Z,53.45
2022-08-16T16:52:06.548Z,53.45
2022-08-16T16:54:35.521Z,53.45
2022-08-16T16:57:02.523Z,53.46
2022-08-16T16:59:29.272Z,53.42
2022-08-16T17:02:39.422Z,53.16
2022-08-16T17:04:45.788Z,53.01
2022-08-16T17:07:14.154Z,53.31
2022-08-16T17:09:41.448Z,53.02
2022-08-16T17:12:10.121Z,52.96
2022-08-16T17:14:42.679Z,53.04
2022-08-16T17:17:09.847Z,52.58
2022-08-16T17:19:41.242Z,52.52
2022-08-16T17:22:19.777Z,52.30
2022-08-16T17:24:50.916Z,52.55
2022-08-16T17:27:32.373Z,52.31
2022-08-16T17:30:15.663Z,52.24
2022-08-16T17:32:47.961Z,52.36
2022-08-16T17:35:19.038Z,52.27
2022-08-16T17:37:51.170Z,52.34
2022-08-16T17:40:25.696Z,52.13
2022-08-16T17:43:13.397Z,52.14
2022-08-16T17:45:41.752Z,52.09
2022-08-16T17:48:08.646Z,52.17
2022-08-16T17:50:35.975Z,52.16
2022-08-16T17:53:02.941Z,52.04
2022-08-16T17:55:33.531Z,51.69
2022-08-16T17:58:00.432Z,51.84
2022-08-16T18:00:29.742Z,51.89
2022-08-16T18:03:00.199Z,51.83
2022-08-16T18:05:29.828Z,51.74
2022-08-16T18:07:56.504Z,51.62
2022-08-16T18:10:33.044Z,51.71
2022-08-16T18:13:03.051Z,51.98
2022-08-16T18:15:30.917Z,51.67
2022-08-16T18:17:57.441Z,51.91
2022-08-16T18:20:43.237Z,52.06
2022-08-16T18:23:15.049Z,52.04
2022-08-16T18:25:47.829Z,52.00
2022-08-16T18:28:14.889Z,52.13
2022-08-16T18:30:41.470Z,52.22
2022-08-16T18:33:08.589Z,52.28
2022-08-16T18:35:35.496Z,52.22
2022-08-16T18:38:02.005Z,52.10
2022-08-16T18:40:29.250Z,52.12
2022-08-16T18:43:04.612Z,52.06
2022-08-16T18:45:35.729Z,52.01
2022-08-16T18:48:04.614Z,51.72
2022-08-16T18:51:04.409Z,51.76
2022-08-16T18:53:21.542Z,51.51
2022-08-16T18:55:48.975Z,51.77
2022-08-16T18:58:16.091Z,51.58
2022-08-16T19:00:56.731Z,51.66
2022-08-16T19:03:30.166Z,51.89
2022-08-16T19:06:10.489Z,51.93
2022-08-16T19:08:40.090Z,52.14
2022-08-16T19:11:10.397Z,51.71
2022-08-16T19:13:40.249Z,52.09
2022-08-16T19:16:07.206Z,51.56
2022-08-16T19:18:36.645Z,51.90
2022-08-16T19:21:05.024Z,52.02
2022-08-16T19:23:35.753Z,51.61
2022-08-16T19:26:24.951Z,51.69
2022-08-16T19:28:58.775Z,51.85
2022-08-16T19:31:29.359Z,52.16
2022-08-16T19:33:56.869Z,51.83
2022-08-16T19:36:36.723Z,52.13
2022-08-16T19:39:13.931Z,51.88
2022-08-16T19:41:43.368Z,52.32
2022-08-16T19:44:10.112Z,52.16
2022-08-16T19:46:37.969Z,52.19
2022-08-16T19:49:05.165Z,52.13
2022-08-16T19:51:32.192Z,52.00
2022-08-16T19:53:58.740Z,52.43
2022-08-16T19:56:26.597Z,52.29
2022-08-16T19:59:18.223Z,52.00
2022-08-16T20:01:44.261Z,52.18
2022-08-16T20:04:14.710Z,52.57
2022-08-16T20:06:42.219Z,52.46
2022-08-16T20:09:10.523Z,52.50
2022-08-16T20:11:41.645Z,52.50
2022-08-16T20:14:08.121Z,52.35
2022-08-16T20:16:34.609Z,52.62
2022-08-16T20:19:01.192Z,52.79
2022-08-16T20:21:28.380Z,52.90
2022-08-16T20:24:09.960Z,52.51
2022-08-16T20:26:41.394Z,53.14
2022-08-16T20:29:07.859Z,53.07
2022-08-16T20:31:34.306Z,52.74
2022-08-16T20:34:02.127Z,52.94
2022-08-16T20:36:29.447Z,53.00
2022-08-16T20:38:59.700Z,52.88
2022-08-16T20:41:27.105Z,53.30
2022-08-16T20:43:55.096Z,53.25
2022-08-16T20:46:22.020Z,53.41
2022-08-16T20:48:48.623Z,53.36
2022-08-16T20:51:15.493Z,53.40
2022-08-16T20:53:43.635Z,53.43
2022-08-16T20:56:11.732Z,53.05
2022-08-16T20:58:38.495Z,53.34
2022-08-16T21:01:06.924Z,53.51
2022-08-16T21:03:33.728Z,53.47
2022-08-16T21:06:03.302Z,53.76
2022-08-16T21:08:53.174Z,53.39
2022-08-16T21:11:16.883Z,53.72
2022-08-16T21:13:43.415Z,53.97
2022-08-16T21:16:09.860Z,53.76
2022-08-16T21:18:36.319Z,53.86
2022-08-16T21:21:02.792Z,54.21
2022-08-16T21:23:29.223Z,54.09
2022-08-16T21:25:57.890Z,54.04
2022-08-16T21:28:41.959Z,54.38
2022-08-16T21:31:14.890Z,54.26
2022-08-16T21:33:43.047Z,54.37
2022-08-16T21:36:10.875Z,54.53
2022-08-16T21:38:37.632Z,54.20
2022-08-16T21:41:07.329Z,54.67
2022-08-16T21:43:34.681Z,54.82
2022-08-16T21:46:01.970Z,54.64
2022-08-16T21:48:34.094Z,54.64
2022-08-16T21:51:05.016Z,54.77
2022-08-16T21:53:31.895Z,54.90
2022-08-16T21:55:59.450Z,54.87
2022-08-16T21:58:26.234Z,54.82
2022-08-16T22:00:52.921Z,54.84
2022-08-16T22:03:19.583Z,55.07
2022-08-16T22:06:11.747Z,54.59
2022-08-16T22:08:35.744Z,54.92
2022-08-16T22:11:13.209Z,55.05
2022-08-16T22:13:40.263Z,55.32
2022-08-16T22:16:08.666Z,55.24
2022-08-16T22:18:35.118Z,55.11
2022-08-16T22:21:01.637Z,55.24
2022-08-16T22:23:28.126Z,55.07
2022-08-16T22:25:56.095Z,55.14
2022-08-16T22:28:23.934Z,55.18
2022-08-16T22:30:51.202Z,55.55
2022-08-16T22:33:21.098Z,55.38
2022-08-16T22:35:51.043Z,55.42
2022-08-16T22:38:55.171Z,55.40
2022-08-16T22:41:06.251Z,55.35
2022-08-16T22:43:33.063Z,55.53
2022-08-16T22:45:59.557Z,55.81
2022-08-16T22:48:26.120Z,55.69
2022-08-16T22:50:52.933Z,55.79
2022-08-16T22:53:19.705Z,55.74
2022-08-16T22:55:46.913Z,55.93
2022-08-16T22:58:13.942Z,56.24
2022-08-16T23:00:41.315Z,56.87
2022-08-16T23:03:16.757Z,57.05
2022-08-16T23:05:55.823Z,56.53
2022-08-16T23:08:38.817Z,56.61
2022-08-16T23:11:08.812Z,56.95
2022-08-16T23:13:35.290Z,56.54
2022-08-16T23:16:10.983Z,56.72
2022-08-16T23:18:39.540Z,56.70
2022-08-16T23:21:09.709Z,56.55
2022-08-16T23:23:37.578Z,56.65
2022-08-16T23:26:46.316Z,56.91
2022-08-16T23:28:52.185Z,56.63
2022-08-16T23:31:18.803Z,56.70
2022-08-16T23:33:45.923Z,56.63
2022-08-16T23:36:12.942Z,56.58
2022-08-16T23:38:39.786Z,56.83
2022-08-16T23:41:11.365Z,56.78
2022-08-16T23:43:41.777Z,56.92
2022-08-16T23:46:13.786Z,56.73
2022-08-16T23:50:01.599Z,56.71
2022-08-16T23:51:28.908Z,56.79
2022-08-16T23:53:55.821Z,56.86
2022-08-16T23:56:22.503Z,56.86
2022-08-16T23:58:54.402Z,57.12
